sensor_id;sensor_type;location;lat;lon;timestamp;P1;durP1;ratioP1;P2;durP2;ratioP2
58661;SDS011;44432;49.786;22.760;2022-12-18T00:00:50;80.70;;;32.30;;
58661;SDS011;44432;49.786;22.760;2022-12-18T00:03:41;78.10;;;31.30;;
58661;SDS011;44432;49.786;22.760;2022-12-18T00:06:11;76.80;;;30.40;;
58661;SDS011;44432;49.786;22.760;2022-12-18T00:08:43;85.50;;;32.00;;
58661;SDS011;44432;49.786;22.760;2022-12-18T00:11:14;82.90;;;31.40;;
58661;SDS011;44432;49.786;22.760;2022-12-18T00:13:46;74.20;;;29.10;;
58661;SDS011;44432;49.786;22.760;2022-12-18T00:16:18;91.90;;;35.50;;
58661;SDS011;44432;49.786;22.760;2022-12-18T00:21:21;75.20;;;28.50;;
58661;SDS011;44432;49.786;22.760;2022-12-18T00:23:51;71.20;;;27.40;;
58661;SDS011;44432;49.786;22.760;2022-12-18T00:26:23;68.20;;;26.10;;
58661;SDS011;44432;49.786;22.760;2022-12-18T00:28:57;77.40;;;29.90;;
58661;SDS011;44432;49.786;22.760;2022-12-18T00:31:29;76.10;;;31.10;;
58661;SDS011;44432;49.786;22.760;2022-12-18T00:34:00;77.20;;;31.80;;
58661;SDS011;44432;49.786;22.760;2022-12-18T00:36:33;75.70;;;28.00;;
58661;SDS011;44432;49.786;22.760;2022-12-18T00:39:04;75.10;;;28.90;;
58661;SDS011;44432;49.786;22.760;2022-12-18T00:41:35;81.70;;;33.30;;
58661;SDS011;44432;49.786;22.760;2022-12-18T00:44:23;85.40;;;34.20;;
58661;SDS011;44432;49.786;22.760;2022-12-18T00:46:54;82.60;;;31.20;;
58661;SDS011;44432;49.786;22.760;2022-12-18T00:49:25;93.10;;;35.30;;
58661;SDS011;44432;49.786;22.760;2022-12-18T00:51:55;86.00;;;33.50;;
58661;SDS011;44432;49.786;22.760;2022-12-18T00:54:26;88.70;;;33.80;;
58661;SDS011;44432;49.786;22.760;2022-12-18T00:56:57;79.20;;;31.40;;
58661;SDS011;44432;49.786;22.760;2022-12-18T00:59:28;76.50;;;29.10;;
58661;SDS011;44432;49.786;22.760;2022-12-18T01:01:59;77.00;;;28.20;;
58661;SDS011;44432;49.786;22.760;2022-12-18T01:04:30;80.80;;;28.50;;
58661;SDS011;44432;49.786;22.760;2022-12-18T01:07:01;73.60;;;28.60;;
58661;SDS011;44432;49.786;22.760;2022-12-18T01:09:32;70.20;;;26.70;;
58661;SDS011;44432;49.786;22.760;2022-12-18T01:12:03;69.70;;;27.50;;
58661;SDS011;44432;49.786;22.760;2022-12-18T01:14:34;69.30;;;28.10;;
58661;SDS011;44432;49.786;22.760;2022-12-18T01:17:05;67.60;;;26.20;;
58661;SDS011;44432;49.786;22.760;2022-12-18T01:19:36;75.40;;;29.50;;
58661;SDS011;44432;49.786;22.760;2022-12-18T01:22:06;66.20;;;26.40;;
58661;SDS011;44432;49.786;22.760;2022-12-18T01:24:37;77.00;;;28.70;;
58661;SDS011;44432;49.786;22.760;2022-12-18T01:27:07;71.40;;;27.80;;
58661;SDS011;44432;49.786;22.760;2022-12-18T01:29:38;69.60;;;27.70;;
58661;SDS011;44432;49.786;22.760;2022-12-18T01:32:09;70.10;;;27.00;;
58661;SDS011;44432;49.786;22.760;2022-12-18T01:34:39;71.80;;;28.10;;
58661;SDS011;44432;49.786;22.760;2022-12-18T01:37:10;63.20;;;25.70;;
58661;SDS011;44432;49.786;22.760;2022-12-18T01:39:41;80.80;;;28.20;;
58661;SDS011;44432;49.786;22.760;2022-12-18T01:42:12;73.70;;;27.80;;
58661;SDS011;44432;49.786;22.760;2022-12-18T01:44:55;72.20;;;28.20;;
58661;SDS011;44432;49.786;22.760;2022-12-18T01:47:30;76.70;;;27.10;;
58661;SDS011;44432;49.786;22.760;2022-12-18T01:50:06;74.50;;;27.00;;
58661;SDS011;44432;49.786;22.760;2022-12-18T01:52:39;71.00;;;26.60;;
58661;SDS011;44432;49.786;22.760;2022-12-18T01:55:12;65.30;;;26.00;;
58661;SDS011;44432;49.786;22.760;2022-12-18T01:57:45;64.30;;;24.90;;
58661;SDS011;44432;49.786;22.760;2022-12-18T02:00:19;73.30;;;27.60;;
58661;SDS011;44432;49.786;22.760;2022-12-18T02:02:51;72.50;;;27.90;;
58661;SDS011;44432;49.786;22.760;2022-12-18T02:05:24;71.10;;;25.80;;
58661;SDS011;44432;49.786;22.760;2022-12-18T02:08:07;63.10;;;27.00;;
58661;SDS011;44432;49.786;22.760;2022-12-18T02:10:44;72.90;;;26.10;;
58661;SDS011;44432;49.786;22.760;2022-12-18T02:13:22;66.10;;;26.00;;
58661;SDS011;44432;49.786;22.760;2022-12-18T02:16:00;63.40;;;25.80;;
58661;SDS011;44432;49.786;22.760;2022-12-18T02:18:37;71.20;;;26.70;;
58661;SDS011;44432;49.786;22.760;2022-12-18T02:21:12;62.90;;;25.60;;
58661;SDS011;44432;49.786;22.760;2022-12-18T02:23:57;65.10;;;26.20;;
58661;SDS011;44432;49.786;22.760;2022-12-18T02:26:40;74.50;;;27.60;;
58661;SDS011;44432;49.786;22.760;2022-12-18T02:29:15;72.50;;;26.30;;
58661;SDS011;44432;49.786;22.760;2022-12-18T02:31:51;75.90;;;29.10;;
58661;SDS011;44432;49.786;22.760;2022-12-18T02:34:25;65.30;;;27.00;;
58661;SDS011;44432;49.786;22.760;2022-12-18T02:36:59;72.30;;;29.90;;
58661;SDS011;44432;49.786;22.760;2022-12-18T02:39:36;77.60;;;28.30;;
58661;SDS011;44432;49.786;22.760;2022-12-18T02:42:09;81.30;;;34.10;;
58661;SDS011;44432;49.786;22.760;2022-12-18T02:44:43;71.30;;;26.50;;
58661;SDS011;44432;49.786;22.760;2022-12-18T02:47:17;71.90;;;28.10;;
58661;SDS011;44432;49.786;22.760;2022-12-18T02:49:52;78.30;;;27.70;;
58661;SDS011;44432;49.786;22.760;2022-12-18T02:52:32;73.80;;;27.50;;
58661;SDS011;44432;49.786;22.760;2022-12-18T02:55:15;76.80;;;30.50;;
58661;SDS011;44432;49.786;22.760;2022-12-18T02:57:56;67.90;;;26.60;;
58661;SDS011;44432;49.786;22.760;2022-12-18T03:00:33;68.90;;;26.90;;
58661;SDS011;44432;49.786;22.760;2022-12-18T03:03:09;62.50;;;24.60;;
58661;SDS011;44432;49.786;22.760;2022-12-18T03:05:46;63.50;;;24.70;;
58661;SDS011;44432;49.786;22.760;2022-12-18T03:08:20;57.00;;;23.10;;
58661;SDS011;44432;49.786;22.760;2022-12-18T03:10:55;49.50;;;22.40;;
58661;SDS011;44432;49.786;22.760;2022-12-18T03:13:31;53.20;;;21.30;;
58661;SDS011;44432;49.786;22.760;2022-12-18T03:16:06;47.30;;;19.80;;
58661;SDS011;44432;49.786;22.760;2022-12-18T03:18:41;51.20;;;21.50;;
58661;SDS011;44432;49.786;22.760;2022-12-18T03:21:15;48.90;;;21.00;;
58661;SDS011;44432;49.786;22.760;2022-12-18T03:23:53;51.20;;;20.70;;
58661;SDS011;44432;49.786;22.760;2022-12-18T03:26:25;45.40;;;19.70;;
58661;SDS011;44432;49.786;22.760;2022-12-18T03:28:59;47.90;;;21.10;;
58661;SDS011;44432;49.786;22.760;2022-12-18T03:31:32;49.30;;;20.00;;
58661;SDS011;44432;49.786;22.760;2022-12-18T03:34:03;42.00;;;18.80;;
58661;SDS011;44432;49.786;22.760;2022-12-18T03:36:38;37.20;;;15.50;;
58661;SDS011;44432;49.786;22.760;2022-12-18T03:39:09;35.90;;;15.90;;
58661;SDS011;44432;49.786;22.760;2022-12-18T03:41:41;33.90;;;15.30;;
58661;SDS011;44432;49.786;22.760;2022-12-18T03:44:17;35.50;;;15.60;;
58661;SDS011;44432;49.786;22.760;2022-12-18T03:46:58;36.30;;;15.80;;
58661;SDS011;44432;49.786;22.760;2022-12-18T03:49:37;35.60;;;16.10;;
58661;SDS011;44432;49.786;22.760;2022-12-18T03:52:16;39.10;;;17.60;;
58661;SDS011;44432;49.786;22.760;2022-12-18T03:54:53;36.80;;;16.60;;
58661;SDS011;44432;49.786;22.760;2022-12-18T03:57:27;38.60;;;15.30;;
58661;SDS011;44432;49.786;22.760;2022-12-18T04:00:02;33.90;;;14.40;;
58661;SDS011;44432;49.786;22.760;2022-12-18T04:02:35;39.00;;;16.40;;
58661;SDS011;44432;49.786;22.760;2022-12-18T04:05:11;39.30;;;15.80;;
58661;SDS011;44432;49.786;22.760;2022-12-18T04:07:43;39.30;;;17.10;;
58661;SDS011;44432;49.786;22.760;2022-12-18T04:12:45;35.60;;;15.00;;
58661;SDS011;44432;49.786;22.760;2022-12-18T04:15:16;35.40;;;15.60;;
58661;SDS011;44432;49.786;22.760;2022-12-18T04:17:48;37.50;;;15.80;;
58661;SDS011;44432;49.786;22.760;2022-12-18T04:20:19;38.60;;;17.30;;
58661;SDS011;44432;49.786;22.760;2022-12-18T04:22:50;34.20;;;15.60;;
58661;SDS011;44432;49.786;22.760;2022-12-18T04:25:20;32.10;;;13.90;;
58661;SDS011;44432;49.786;22.760;2022-12-18T04:27:51;35.20;;;16.30;;
58661;SDS011;44432;49.786;22.760;2022-12-18T04:30:21;38.20;;;15.70;;
58661;SDS011;44432;49.786;22.760;2022-12-18T04:32:52;37.80;;;16.00;;
58661;SDS011;44432;49.786;22.760;2022-12-18T04:35:23;31.80;;;14.20;;
58661;SDS011;44432;49.786;22.760;2022-12-18T04:37:53;35.20;;;13.10;;
58661;SDS011;44432;49.786;22.760;2022-12-18T04:40:24;37.50;;;15.70;;
58661;SDS011;44432;49.786;22.760;2022-12-18T04:42:55;33.20;;;15.10;;
58661;SDS011;44432;49.786;22.760;2022-12-18T04:45:25;33.90;;;14.70;;
58661;SDS011;44432;49.786;22.760;2022-12-18T04:47:56;41.30;;;17.80;;
58661;SDS011;44432;49.786;22.760;2022-12-18T04:50:27;33.40;;;14.90;;
58661;SDS011;44432;49.786;22.760;2022-12-18T04:52:58;35.70;;;15.00;;
58661;SDS011;44432;49.786;22.760;2022-12-18T04:55:29;35.60;;;15.10;;
58661;SDS011;44432;49.786;22.760;2022-12-18T04:57:59;35.00;;;15.80;;
58661;SDS011;44432;49.786;22.760;2022-12-18T05:00:30;37.30;;;15.90;;
58661;SDS011;44432;49.786;22.760;2022-12-18T05:03:01;33.10;;;16.10;;
58661;SDS011;44432;49.786;22.760;2022-12-18T05:05:33;39.00;;;16.30;;
58661;SDS011;44432;49.786;22.760;2022-12-18T05:08:04;39.40;;;17.90;;
58661;SDS011;44432;49.786;22.760;2022-12-18T05:10:35;41.10;;;16.60;;
58661;SDS011;44432;49.786;22.760;2022-12-18T05:13:06;37.40;;;15.40;;
58661;SDS011;44432;49.786;22.760;2022-12-18T05:15:36;39.60;;;16.40;;
58661;SDS011;44432;49.786;22.760;2022-12-18T05:18:07;36.40;;;15.60;;
58661;SDS011;44432;49.786;22.760;2022-12-18T05:20:37;37.20;;;16.90;;
58661;SDS011;44432;49.786;22.760;2022-12-18T05:23:08;35.00;;;16.00;;
58661;SDS011;44432;49.786;22.760;2022-12-18T05:25:38;38.60;;;16.60;;
58661;SDS011;44432;49.786;22.760;2022-12-18T05:28:09;39.30;;;17.80;;
58661;SDS011;44432;49.786;22.760;2022-12-18T05:30:42;38.80;;;17.00;;
58661;SDS011;44432;49.786;22.760;2022-12-18T05:33:13;38.20;;;15.80;;
58661;SDS011;44432;49.786;22.760;2022-12-18T05:35:44;42.90;;;18.50;;
58661;SDS011;44432;49.786;22.760;2022-12-18T05:38:19;37.60;;;16.90;;
58661;SDS011;44432;49.786;22.760;2022-12-18T05:40:50;39.90;;;18.30;;
58661;SDS011;44432;49.786;22.760;2022-12-18T05:43:22;42.60;;;18.10;;
58661;SDS011;44432;49.786;22.760;2022-12-18T05:45:53;39.50;;;16.60;;
58661;SDS011;44432;49.786;22.760;2022-12-18T05:48:25;39.50;;;17.60;;
58661;SDS011;44432;49.786;22.760;2022-12-18T05:50:55;36.80;;;18.20;;
58661;SDS011;44432;49.786;22.760;2022-12-18T05:53:32;37.60;;;16.40;;
58661;SDS011;44432;49.786;22.760;2022-12-18T05:56:03;37.40;;;17.80;;
58661;SDS011;44432;49.786;22.760;2022-12-18T05:58:35;35.70;;;15.20;;
58661;SDS011;44432;49.786;22.760;2022-12-18T06:01:10;34.00;;;16.60;;
58661;SDS011;44432;49.786;22.760;2022-12-18T06:03:42;38.10;;;16.60;;
58661;SDS011;44432;49.786;22.760;2022-12-18T06:06:14;34.90;;;16.70;;
58661;SDS011;44432;49.786;22.760;2022-12-18T06:08:46;36.10;;;16.60;;
58661;SDS011;44432;49.786;22.760;2022-12-18T06:11:18;31.60;;;14.20;;
58661;SDS011;44432;49.786;22.760;2022-12-18T06:13:50;28.10;;;14.00;;
58661;SDS011;44432;49.786;22.760;2022-12-18T06:16:22;27.80;;;12.70;;
58661;SDS011;44432;49.786;22.760;2022-12-18T06:18:53;27.90;;;13.30;;
58661;SDS011;44432;49.786;22.760;2022-12-18T06:21:24;25.10;;;12.40;;
58661;SDS011;44432;49.786;22.760;2022-12-18T06:23:55;32.20;;;15.90;;
58661;SDS011;44432;49.786;22.760;2022-12-18T06:26:25;25.60;;;12.50;;
58661;SDS011;44432;49.786;22.760;2022-12-18T06:28:56;29.00;;;14.60;;
58661;SDS011;44432;49.786;22.760;2022-12-18T06:31:27;28.20;;;12.30;;
58661;SDS011;44432;49.786;22.760;2022-12-18T06:33:57;25.40;;;11.90;;
58661;SDS011;44432;49.786;22.760;2022-12-18T06:36:28;27.40;;;13.50;;
58661;SDS011;44432;49.786;22.760;2022-12-18T06:38:58;27.20;;;12.60;;
58661;SDS011;44432;49.786;22.760;2022-12-18T06:41:29;27.40;;;13.80;;
58661;SDS011;44432;49.786;22.760;2022-12-18T06:44:00;23.30;;;11.70;;
58661;SDS011;44432;49.786;22.760;2022-12-18T06:46:30;25.60;;;12.40;;
58661;SDS011;44432;49.786;22.760;2022-12-18T06:49:01;24.90;;;11.70;;
58661;SDS011;44432;49.786;22.760;2022-12-18T06:51:31;26.70;;;12.40;;
58661;SDS011;44432;49.786;22.760;2022-12-18T06:54:02;29.20;;;12.50;;
58661;SDS011;44432;49.786;22.760;2022-12-18T06:56:33;23.40;;;11.60;;
58661;SDS011;44432;49.786;22.760;2022-12-18T06:59:04;24.90;;;11.20;;
58661;SDS011;44432;49.786;22.760;2022-12-18T07:01:35;22.80;;;10.90;;
58661;SDS011;44432;49.786;22.760;2022-12-18T07:04:05;26.60;;;12.80;;
58661;SDS011;44432;49.786;22.760;2022-12-18T07:06:36;28.40;;;12.70;;
58661;SDS011;44432;49.786;22.760;2022-12-18T07:09:07;43.50;;;17.90;;
58661;SDS011;44432;49.786;22.760;2022-12-18T07:11:37;35.30;;;16.10;;
58661;SDS011;44432;49.786;22.760;2022-12-18T07:14:08;33.20;;;15.10;;
58661;SDS011;44432;49.786;22.760;2022-12-18T07:16:38;24.40;;;13.20;;
58661;SDS011;44432;49.786;22.760;2022-12-18T07:19:09;30.00;;;15.10;;
58661;SDS011;44432;49.786;22.760;2022-12-18T07:21:40;30.50;;;15.50;;
58661;SDS011;44432;49.786;22.760;2022-12-18T07:24:10;32.10;;;15.20;;
58661;SDS011;44432;49.786;22.760;2022-12-18T07:26:42;30.30;;;14.10;;
58661;SDS011;44432;49.786;22.760;2022-12-18T07:29:14;30.60;;;14.60;;
58661;SDS011;44432;49.786;22.760;2022-12-18T07:31:44;28.90;;;13.80;;
58661;SDS011;44432;49.786;22.760;2022-12-18T07:34:15;27.90;;;14.30;;
58661;SDS011;44432;49.786;22.760;2022-12-18T07:36:46;29.70;;;14.30;;
58661;SDS011;44432;49.786;22.760;2022-12-18T07:39:16;31.30;;;15.30;;
58661;SDS011;44432;49.786;22.760;2022-12-18T07:41:47;28.20;;;13.40;;
58661;SDS011;44432;49.786;22.760;2022-12-18T07:44:38;30.40;;;16.20;;
58661;SDS011;44432;49.786;22.760;2022-12-18T07:47:09;28.10;;;14.20;;
58661;SDS011;44432;49.786;22.760;2022-12-18T07:49:39;31.60;;;16.70;;
58661;SDS011;44432;49.786;22.760;2022-12-18T07:52:10;29.90;;;15.90;;
58661;SDS011;44432;49.786;22.760;2022-12-18T07:54:41;24.60;;;12.10;;
58661;SDS011;44432;49.786;22.760;2022-12-18T07:57:11;28.40;;;14.20;;
58661;SDS011;44432;49.786;22.760;2022-12-18T07:59:42;39.90;;;19.40;;
58661;SDS011;44432;49.786;22.760;2022-12-18T08:02:13;31.00;;;14.50;;
58661;SDS011;44432;49.786;22.760;2022-12-18T08:04:43;31.70;;;15.80;;
58661;SDS011;44432;49.786;22.760;2022-12-18T08:07:14;27.60;;;14.30;;
58661;SDS011;44432;49.786;22.760;2022-12-18T08:09:45;28.80;;;13.60;;
58661;SDS011;44432;49.786;22.760;2022-12-18T08:12:16;31.20;;;16.00;;
58661;SDS011;44432;49.786;22.760;2022-12-18T08:14:47;25.50;;;13.60;;
58661;SDS011;44432;49.786;22.760;2022-12-18T08:17:18;25.90;;;12.80;;
58661;SDS011;44432;49.786;22.760;2022-12-18T08:19:49;32.60;;;17.00;;
58661;SDS011;44432;49.786;22.760;2022-12-18T08:22:20;24.80;;;13.00;;
58661;SDS011;44432;49.786;22.760;2022-12-18T08:24:50;29.60;;;16.30;;
58661;SDS011;44432;49.786;22.760;2022-12-18T08:27:21;37.90;;;20.30;;
58661;SDS011;44432;49.786;22.760;2022-12-18T08:29:51;33.00;;;19.40;;
58661;SDS011;44432;49.786;22.760;2022-12-18T08:32:22;30.40;;;15.50;;
58661;SDS011;44432;49.786;22.760;2022-12-18T08:34:53;31.20;;;16.70;;
58661;SDS011;44432;49.786;22.760;2022-12-18T08:37:24;27.70;;;13.40;;
58661;SDS011;44432;49.786;22.760;2022-12-18T08:39:54;28.50;;;15.90;;
58661;SDS011;44432;49.786;22.760;2022-12-18T08:42:25;31.40;;;16.70;;
58661;SDS011;44432;49.786;22.760;2022-12-18T08:45:13;31.80;;;17.10;;
58661;SDS011;44432;49.786;22.760;2022-12-18T08:47:45;33.60;;;17.00;;
58661;SDS011;44432;49.786;22.760;2022-12-18T08:50:16;33.10;;;17.10;;
58661;SDS011;44432;49.786;22.760;2022-12-18T08:52:47;31.90;;;17.10;;
58661;SDS011;44432;49.786;22.760;2022-12-18T08:55:18;32.60;;;16.00;;
58661;SDS011;44432;49.786;22.760;2022-12-18T08:57:49;29.40;;;15.30;;
58661;SDS011;44432;49.786;22.760;2022-12-18T09:00:20;29.80;;;14.90;;
58661;SDS011;44432;49.786;22.760;2022-12-18T09:02:50;30.60;;;15.30;;
58661;SDS011;44432;49.786;22.760;2022-12-18T09:05:21;29.20;;;14.70;;
58661;SDS011;44432;49.786;22.760;2022-12-18T09:07:52;28.00;;;14.90;;
58661;SDS011;44432;49.786;22.760;2022-12-18T09:10:22;27.90;;;15.40;;
58661;SDS011;44432;49.786;22.760;2022-12-18T09:12:53;31.10;;;15.10;;
58661;SDS011;44432;49.786;22.760;2022-12-18T09:15:24;32.00;;;16.60;;
58661;SDS011;44432;49.786;22.760;2022-12-18T09:17:55;30.40;;;15.10;;
58661;SDS011;44432;49.786;22.760;2022-12-18T09:20:26;38.90;;;19.70;;
58661;SDS011;44432;49.786;22.760;2022-12-18T09:22:57;33.40;;;19.20;;
58661;SDS011;44432;49.786;22.760;2022-12-18T09:25:29;34.30;;;18.60;;
58661;SDS011;44432;49.786;22.760;2022-12-18T09:28:01;31.70;;;17.60;;
58661;SDS011;44432;49.786;22.760;2022-12-18T09:30:32;31.60;;;17.60;;
58661;SDS011;44432;49.786;22.760;2022-12-18T09:33:05;34.40;;;17.50;;
58661;SDS011;44432;49.786;22.760;2022-12-18T09:35:37;29.00;;;16.30;;
58661;SDS011;44432;49.786;22.760;2022-12-18T09:38:08;33.10;;;15.70;;
58661;SDS011;44432;49.786;22.760;2022-12-18T09:40:44;39.80;;;18.30;;
58661;SDS011;44432;49.786;22.760;2022-12-18T09:43:17;30.70;;;16.00;;
58661;SDS011;44432;49.786;22.760;2022-12-18T09:45:50;31.10;;;16.60;;
58661;SDS011;44432;49.786;22.760;2022-12-18T09:48:25;30.30;;;13.80;;
58661;SDS011;44432;49.786;22.760;2022-12-18T09:51:00;33.50;;;16.90;;
58661;SDS011;44432;49.786;22.760;2022-12-18T09:53:37;33.20;;;16.60;;
58661;SDS011;44432;49.786;22.760;2022-12-18T09:56:12;28.00;;;13.90;;
58661;SDS011;44432;49.786;22.760;2022-12-18T09:58:54;29.20;;;14.60;;
58661;SDS011;44432;49.786;22.760;2022-12-18T10:01:28;32.20;;;15.90;;
58661;SDS011;44432;49.786;22.760;2022-12-18T10:06:31;40.60;;;19.50;;
58661;SDS011;44432;49.786;22.760;2022-12-18T10:09:11;34.80;;;16.80;;
58661;SDS011;44432;49.786;22.760;2022-12-18T10:11:52;34.50;;;17.00;;
58661;SDS011;44432;49.786;22.760;2022-12-18T10:14:29;35.50;;;17.40;;
58661;SDS011;44432;49.786;22.760;2022-12-18T10:17:05;35.00;;;18.50;;
58661;SDS011;44432;49.786;22.760;2022-12-18T10:19:51;28.00;;;14.40;;
58661;SDS011;44432;49.786;22.760;2022-12-18T10:22:28;35.80;;;18.50;;
58661;SDS011;44432;49.786;22.760;2022-12-18T10:25:15;36.00;;;19.70;;
58661;SDS011;44432;49.786;22.760;2022-12-18T10:27:51;26.30;;;15.50;;
58661;SDS011;44432;49.786;22.760;2022-12-18T10:30:25;33.50;;;18.80;;
58661;SDS011;44432;49.786;22.760;2022-12-18T10:32:58;32.50;;;17.70;;
58661;SDS011;44432;49.786;22.760;2022-12-18T10:35:31;28.30;;;15.40;;
58661;SDS011;44432;49.786;22.760;2022-12-18T10:38:04;28.10;;;14.00;;
58661;SDS011;44432;49.786;22.760;2022-12-18T10:40:49;30.60;;;15.40;;
58661;SDS011;44432;49.786;22.760;2022-12-18T10:43:22;26.30;;;14.00;;
58661;SDS011;44432;49.786;22.760;2022-12-18T10:46:02;26.40;;;14.00;;
58661;SDS011;44432;49.786;22.760;2022-12-18T10:48:53;28.80;;;14.50;;
58661;SDS011;44432;49.786;22.760;2022-12-18T10:51:26;22.20;;;12.30;;
58661;SDS011;44432;49.786;22.760;2022-12-18T10:53:59;28.90;;;15.80;;
58661;SDS011;44432;49.786;22.760;2022-12-18T10:56:34;31.70;;;15.30;;
58661;SDS011;44432;49.786;22.760;2022-12-18T10:59:07;35.30;;;20.80;;
58661;SDS011;44432;49.786;22.760;2022-12-18T11:01:50;26.60;;;13.30;;
58661;SDS011;44432;49.786;22.760;2022-12-18T11:06:54;29.10;;;13.80;;
58661;SDS011;44432;49.786;22.760;2022-12-18T11:09:27;26.10;;;13.40;;
58661;SDS011;44432;49.786;22.760;2022-12-18T11:11:59;42.80;;;19.30;;
58661;SDS011;44432;49.786;22.760;2022-12-18T11:14:34;28.00;;;13.80;;
58661;SDS011;44432;49.786;22.760;2022-12-18T11:17:19;32.80;;;17.00;;
58661;SDS011;44432;49.786;22.760;2022-12-18T11:19:53;29.90;;;15.00;;
58661;SDS011;44432;49.786;22.760;2022-12-18T11:22:25;28.20;;;14.10;;
58661;SDS011;44432;49.786;22.760;2022-12-18T11:24:58;32.90;;;16.90;;
58661;SDS011;44432;49.786;22.760;2022-12-18T11:27:31;29.60;;;14.50;;
58661;SDS011;44432;49.786;22.760;2022-12-18T11:30:08;27.90;;;14.60;;
58661;SDS011;44432;49.786;22.760;2022-12-18T11:32:51;37.20;;;17.70;;
58661;SDS011;44432;49.786;22.760;2022-12-18T11:35:28;30.70;;;16.00;;
58661;SDS011;44432;49.786;22.760;2022-12-18T11:38:06;34.60;;;16.30;;
58661;SDS011;44432;49.786;22.760;2022-12-18T11:40:47;29.70;;;14.30;;
58661;SDS011;44432;49.786;22.760;2022-12-18T11:43:25;29.00;;;16.00;;
58661;SDS011;44432;49.786;22.760;2022-12-18T11:46:01;31.70;;;15.30;;
58661;SDS011;44432;49.786;22.760;2022-12-18T11:48:37;30.10;;;13.90;;
58661;SDS011;44432;49.786;22.760;2022-12-18T11:51:15;32.10;;;15.70;;
58661;SDS011;44432;49.786;22.760;2022-12-18T11:53:54;33.50;;;15.90;;
58661;SDS011;44432;49.786;22.760;2022-12-18T11:56:27;39.90;;;22.30;;
58661;SDS011;44432;49.786;22.760;2022-12-18T11:59:06;30.90;;;16.00;;
58661;SDS011;44432;49.786;22.760;2022-12-18T12:01:48;33.30;;;16.70;;
58661;SDS011;44432;49.786;22.760;2022-12-18T12:04:30;49.30;;;21.90;;
58661;SDS011;44432;49.786;22.760;2022-12-18T12:07:23;35.60;;;18.40;;
58661;SDS011;44432;49.786;22.760;2022-12-18T12:10:03;31.20;;;14.40;;
58661;SDS011;44432;49.786;22.760;2022-12-18T12:12:51;31.00;;;16.30;;
58661;SDS011;44432;49.786;22.760;2022-12-18T12:15:37;30.20;;;15.20;;
58661;SDS011;44432;49.786;22.760;2022-12-18T12:18:18;35.40;;;18.40;;
58661;SDS011;44432;49.786;22.760;2022-12-18T12:21:00;42.00;;;20.90;;
58661;SDS011;44432;49.786;22.760;2022-12-18T12:23:39;37.50;;;19.00;;
58661;SDS011;44432;49.786;22.760;2022-12-18T12:26:18;38.10;;;18.70;;
58661;SDS011;44432;49.786;22.760;2022-12-18T12:28:59;34.70;;;16.70;;
58661;SDS011;44432;49.786;22.760;2022-12-18T12:31:44;33.60;;;15.10;;
58661;SDS011;44432;49.786;22.760;2022-12-18T12:34:29;32.70;;;17.90;;
58661;SDS011;44432;49.786;22.760;2022-12-18T12:37:07;35.50;;;19.80;;
58661;SDS011;44432;49.786;22.760;2022-12-18T12:39:48;33.40;;;17.70;;
58661;SDS011;44432;49.786;22.760;2022-12-18T12:42:26;37.80;;;19.20;;
58661;SDS011;44432;49.786;22.760;2022-12-18T12:45:22;31.40;;;14.90;;
58661;SDS011;44432;49.786;22.760;2022-12-18T12:48:00;45.10;;;22.60;;
58661;SDS011;44432;49.786;22.760;2022-12-18T12:50:34;39.00;;;17.80;;
58661;SDS011;44432;49.786;22.760;2022-12-18T12:53:07;37.30;;;18.00;;
58661;SDS011;44432;49.786;22.760;2022-12-18T12:55:48;45.40;;;22.40;;
58661;SDS011;44432;49.786;22.760;2022-12-18T12:58:21;37.10;;;19.30;;
58661;SDS011;44432;49.786;22.760;2022-12-18T13:01:01;33.00;;;16.30;;
58661;SDS011;44432;49.786;22.760;2022-12-18T13:03:46;39.80;;;20.60;;
58661;SDS011;44432;49.786;22.760;2022-12-18T13:06:29;38.00;;;18.70;;
58661;SDS011;44432;49.786;22.760;2022-12-18T13:09:08;40.30;;;21.20;;
58661;SDS011;44432;49.786;22.760;2022-12-18T13:11:40;41.30;;;21.60;;
58661;SDS011;44432;49.786;22.760;2022-12-18T13:14:31;38.20;;;19.30;;
58661;SDS011;44432;49.786;22.760;2022-12-18T13:17:16;36.30;;;18.60;;
58661;SDS011;44432;49.786;22.760;2022-12-18T13:20:09;41.10;;;21.60;;
58661;SDS011;44432;49.786;22.760;2022-12-18T13:22:43;48.70;;;25.70;;
58661;SDS011;44432;49.786;22.760;2022-12-18T13:25:33;64.60;;;33.10;;
58661;SDS011;44432;49.786;22.760;2022-12-18T13:28:12;80.00;;;38.70;;
58661;SDS011;44432;49.786;22.760;2022-12-18T13:30:48;44.80;;;22.50;;
58661;SDS011;44432;49.786;22.760;2022-12-18T13:33:39;43.30;;;22.00;;
58661;SDS011;44432;49.786;22.760;2022-12-18T13:36:16;51.80;;;26.90;;
58661;SDS011;44432;49.786;22.760;2022-12-18T13:39:11;35.70;;;18.20;;
58661;SDS011;44432;49.786;22.760;2022-12-18T13:41:52;34.50;;;18.60;;
58661;SDS011;44432;49.786;22.760;2022-12-18T13:45:03;30.10;;;15.60;;
58661;SDS011;44432;49.786;22.760;2022-12-18T13:48:10;36.50;;;19.00;;
58661;SDS011;44432;49.786;22.760;2022-12-18T13:50:54;31.50;;;14.70;;
58661;SDS011;44432;49.786;22.760;2022-12-18T13:53:30;32.70;;;18.20;;
58661;SDS011;44432;49.786;22.760;2022-12-18T13:56:05;32.60;;;16.90;;
58661;SDS011;44432;49.786;22.760;2022-12-18T13:58:36;29.70;;;14.20;;
58661;SDS011;44432;49.786;22.760;2022-12-18T14:01:10;27.50;;;13.50;;
58661;SDS011;44432;49.786;22.760;2022-12-18T14:03:52;35.80;;;19.40;;
58661;SDS011;44432;49.786;22.760;2022-12-18T14:06:39;33.30;;;17.90;;
58661;SDS011;44432;49.786;22.760;2022-12-18T14:09:12;36.10;;;16.10;;
58661;SDS011;44432;49.786;22.760;2022-12-18T14:11:47;28.70;;;14.40;;
58661;SDS011;44432;49.786;22.760;2022-12-18T14:14:19;26.60;;;14.30;;
58661;SDS011;44432;49.786;22.760;2022-12-18T14:16:50;33.70;;;17.10;;
58661;SDS011;44432;49.786;22.760;2022-12-18T14:19:21;56.60;;;27.50;;
58661;SDS011;44432;49.786;22.760;2022-12-18T14:21:53;36.60;;;18.90;;
58661;SDS011;44432;49.786;22.760;2022-12-18T14:24:24;35.10;;;17.90;;
58661;SDS011;44432;49.786;22.760;2022-12-18T14:26:56;44.80;;;21.00;;
58661;SDS011;44432;49.786;22.760;2022-12-18T14:29:49;32.40;;;15.80;;
58661;SDS011;44432;49.786;22.760;2022-12-18T14:32:20;28.60;;;13.50;;
58661;SDS011;44432;49.786;22.760;2022-12-18T14:34:51;35.60;;;16.70;;
58661;SDS011;44432;49.786;22.760;2022-12-18T14:37:23;35.90;;;15.40;;
58661;SDS011;44432;49.786;22.760;2022-12-18T14:39:56;32.40;;;14.40;;
58661;SDS011;44432;49.786;22.760;2022-12-18T14:42:28;27.80;;;13.30;;
58661;SDS011;44432;49.786;22.760;2022-12-18T14:48:11;32.50;;;15.60;;
58661;SDS011;44432;49.786;22.760;2022-12-18T14:50:53;33.50;;;17.10;;
58661;SDS011;44432;49.786;22.760;2022-12-18T14:53:29;30.30;;;13.70;;
58661;SDS011;44432;49.786;22.760;2022-12-18T14:56:04;45.10;;;21.60;;
58661;SDS011;44432;49.786;22.760;2022-12-18T14:58:46;80.30;;;31.50;;
58661;SDS011;44432;49.786;22.760;2022-12-18T15:01:26;45.70;;;20.30;;
58661;SDS011;44432;49.786;22.760;2022-12-18T15:03:59;55.60;;;25.90;;